createdAt,value
2023-05-24T00:01:37.842Z,11.90
2023-05-24T00:06:38.420Z,12.00
2023-05-24T00:09:08.858Z,11.60
2023-05-24T00:11:39.004Z,10.10
2023-05-24T00:14:11.820Z,11.90
2023-05-24T00:16:41.999Z,11.60
2023-05-24T00:21:49.330Z,10.80
2023-05-24T00:24:20.050Z,12.70
2023-05-24T00:26:50.201Z,12.70
2023-05-24T00:29:23.010Z,8.80
2023-05-24T00:34:23.982Z,11.30
2023-05-24T00:36:54.101Z,12.50
2023-05-24T00:39:24.326Z,9.10
2023-05-24T00:44:27.526Z,11.20
2023-05-24T00:46:58.039Z,10.50
2023-05-24T00:49:28.391Z,11.10
2023-05-24T00:54:29.366Z,11.20
2023-05-24T00:57:00.087Z,11.90
2023-05-24T01:04:34.162Z,11.40
2023-05-24T01:07:14.736Z,12.10
2023-05-24T01:09:58.497Z,8.90
2023-05-24T01:12:36.198Z,11.70
2023-05-24T01:15:18.115Z,11.00
2023-05-24T01:17:54.797Z,10.70
2023-05-24T01:20:26.593Z,12.20
2023-05-24T01:23:27.432Z,11.40
2023-05-24T01:26:11.939Z,10.40
2023-05-24T01:28:44.678Z,10.70
2023-05-24T01:31:16.148Z,10.80
2023-05-24T01:33:47.223Z,8.00
2023-05-24T01:38:49.054Z,11.10
2023-05-24T01:41:27.335Z,11.60
2023-05-24T01:44:05.853Z,11.40
2023-05-24T01:46:40.293Z,10.60
2023-05-24T01:49:21.386Z,7.70
2023-05-24T01:51:56.988Z,11.20
2023-05-24T01:54:29.496Z,10.60
2023-05-24T01:57:01.866Z,10.50
2023-05-24T01:59:36.406Z,7.80
2023-05-24T02:02:06.822Z,10.50
2023-05-24T02:04:37.069Z,11.60
2023-05-24T02:07:07.565Z,10.00
2023-05-24T02:09:37.779Z,10.70
2023-05-24T02:12:09.018Z,12.10
2023-05-24T02:14:42.955Z,10.50
2023-05-24T02:17:13.426Z,10.30
2023-05-24T02:19:43.586Z,10.30
2023-05-24T02:29:47.920Z,9.10
2023-05-24T02:32:18.248Z,9.80
2023-05-24T02:34:48.513Z,11.00
2023-05-24T02:37:18.720Z,11.10
2023-05-24T02:42:19.204Z,10.30
2023-05-24T02:44:53.007Z,10.70
2023-05-24T02:49:53.833Z,10.10
2023-05-24T02:52:24.222Z,9.90
2023-05-24T02:54:54.455Z,9.90
2023-05-24T02:57:24.767Z,10.50
2023-05-24T02:59:58.154Z,9.90
2023-05-24T03:02:28.890Z,7.10
2023-05-24T03:07:29.677Z,9.90
2023-05-24T03:09:59.798Z,7.60
2023-05-24T03:12:30.019Z,10.90
2023-05-24T03:15:02.929Z,9.80
2023-05-24T03:22:36.593Z,10.40
2023-05-24T03:25:08.911Z,10.80
2023-05-24T03:27:39.239Z,10.20
2023-05-24T03:30:13.100Z,10.70
2023-05-24T03:32:43.387Z,11.40
2023-05-24T03:35:14.134Z,10.70
2023-05-24T03:37:44.356Z,9.50
2023-05-24T03:40:14.967Z,11.00
2023-05-24T03:50:35.686Z,10.70
2023-05-24T03:53:05.923Z,10.80
2023-05-24T04:00:42.297Z,9.50
2023-05-24T04:15:49.407Z,9.70
2023-05-24T04:18:19.712Z,9.50
2023-05-24T04:25:50.943Z,10.80
2023-05-24T04:28:22.503Z,10.60
2023-05-24T04:30:56.412Z,9.80
2023-05-24T04:33:26.695Z,10.90
2023-05-24T04:35:56.888Z,11.10
2023-05-24T04:38:30.020Z,11.30
2023-05-24T04:41:00.161Z,10.90
2023-05-24T04:43:30.970Z,9.70
2023-05-24T04:46:03.892Z,11.40
2023-05-24T04:48:34.144Z,10.30
2023-05-24T04:51:04.642Z,10.10
2023-05-24T04:53:34.822Z,10.10
2023-05-24T04:56:04.941Z,10.60
2023-05-24T04:58:36.686Z,10.80
2023-05-24T05:06:11.789Z,10.20
2023-05-24T05:08:41.982Z,10.90
2023-05-24T05:11:12.383Z,10.60
2023-05-24T05:18:46.352Z,12.20
2023-05-24T05:23:47.053Z,12.50
2023-05-24T05:26:17.176Z,13.00
2023-05-24T05:31:20.347Z,11.10
2023-05-24T05:33:50.703Z,13.70
2023-05-24T05:36:20.938Z,12.50
2023-05-24T05:38:51.084Z,13.50
2023-05-24T05:43:52.674Z,10.30
2023-05-24T05:46:25.524Z,12.90
2023-05-24T05:48:55.822Z,14.70
2023-05-24T05:51:26.007Z,13.10
2023-05-24T05:56:27.903Z,11.30
2023-05-24T05:59:01.170Z,12.60
2023-05-24T06:01:33.957Z,14.00
2023-05-24T06:04:04.399Z,13.80
2023-05-24T06:06:34.647Z,13.70
2023-05-24T06:11:39.208Z,12.80
2023-05-24T06:14:09.369Z,15.50
2023-05-24T06:16:42.342Z,15.60
2023-05-24T06:19:12.783Z,14.10
2023-05-24T06:24:20.830Z,14.40
2023-05-24T06:26:51.694Z,16.30
2023-05-24T06:29:23.078Z,11.90
2023-05-24T06:31:55.891Z,15.50
2023-05-24T06:34:26.174Z,13.80
2023-05-24T06:36:56.675Z,15.80
2023-05-24T06:39:26.978Z,11.80
2023-05-24T06:41:57.786Z,14.60
2023-05-24T06:44:34.322Z,14.70
2023-05-24T06:47:07.735Z,15.10
2023-05-24T06:49:38.712Z,14.70
2023-05-24T06:52:10.247Z,13.80
2023-05-24T06:54:40.776Z,16.40
2023-05-24T06:57:11.117Z,15.40
2023-05-24T06:59:41.322Z,16.80
2023-05-24T07:02:14.098Z,15.80
2023-05-24T07:04:44.290Z,15.90
2023-05-24T07:09:46.457Z,16.00
2023-05-24T07:12:16.889Z,15.90
2023-05-24T07:14:47.132Z,15.80
2023-05-24T07:17:19.995Z,15.50
2023-05-24T07:19:51.378Z,17.00
2023-05-24T07:22:22.786Z,14.90
2023-05-24T07:24:53.019Z,15.80
2023-05-24T07:27:23.226Z,16.00
2023-05-24T07:29:53.438Z,16.10
2023-05-24T07:32:26.296Z,16.20
2023-05-24T07:34:56.564Z,16.10
2023-05-24T07:37:27.206Z,17.50
2023-05-24T07:39:57.422Z,16.30
2023-05-24T07:42:27.691Z,18.10
2023-05-24T07:47:30.864Z,15.10
2023-05-24T07:50:01.045Z,17.30
2023-05-24T07:52:31.560Z,16.30
2023-05-24T07:55:02.271Z,16.40
2023-05-24T08:02:48.361Z,17.70
2023-05-24T08:05:19.616Z,17.90
2023-05-24T08:07:49.779Z,17.60
2023-05-24T08:12:51.688Z,18.10
2023-05-24T08:15:21.926Z,18.00
2023-05-24T08:17:54.733Z,18.70
2023-05-24T08:20:25.023Z,18.40
2023-05-24T08:25:26.402Z,20.90
2023-05-24T08:27:57.504Z,20.00
2023-05-24T08:30:28.016Z,19.20
2023-05-24T08:33:01.511Z,19.40
2023-05-24T08:35:31.952Z,20.40
2023-05-24T08:38:02.097Z,19.70
2023-05-24T08:45:36.055Z,21.50
2023-05-24T08:48:09.587Z,22.90
2023-05-24T08:50:39.980Z,23.50
2023-05-24T08:53:11.699Z,23.70
2023-05-24T08:55:44.227Z,23.20
2023-05-24T08:58:14.711Z,23.70
2023-05-24T09:00:44.901Z,24.80
2023-05-24T09:03:18.467Z,24.60
2023-05-24T09:05:49.303Z,25.70
2023-05-24T09:08:20.883Z,26.20
2023-05-24T09:10:55.621Z,25.10
2023-05-24T09:13:27.546Z,24.30
2023-05-24T09:18:31.067Z,23.80
2023-05-24T09:23:31.704Z,24.60
2023-05-24T09:26:01.752Z,24.70
2023-05-24T09:28:35.969Z,26.10
2023-05-24T09:31:08.082Z,24.90
2023-05-24T09:33:42.836Z,24.90
2023-05-24T09:36:14.159Z,24.80
2023-05-24T09:38:44.309Z,24.30
2023-05-24T09:41:15.002Z,23.70
2023-05-24T09:43:52.456Z,23.60
2023-05-24T09:46:23.336Z,23.00
2023-05-24T09:49:04.123Z,23.20
2023-05-24T09:51:34.385Z,23.10
2023-05-24T09:54:05.480Z,24.40
2023-05-24T09:56:37.626Z,22.80
2023-05-24T09:59:11.413Z,24.30
2023-05-24T10:01:41.797Z,23.50
2023-05-24T10:04:15.029Z,23.20
2023-05-24T10:06:46.132Z,22.70
2023-05-24T10:11:46.731Z,21.70
2023-05-24T10:14:18.247Z,23.20
2023-05-24T10:19:22.042Z,24.00
2023-05-24T10:21:53.096Z,23.20
2023-05-24T10:24:28.829Z,22.80
2023-05-24T10:27:02.623Z,23.20
2023-05-24T10:32:09.287Z,24.90
2023-05-24T10:34:43.122Z,25.00
2023-05-24T10:37:13.576Z,23.70
2023-05-24T10:39:44.708Z,24.00
2023-05-24T10:42:18.258Z,22.70
2023-05-24T10:44:48.521Z,23.00
2023-05-24T10:47:19.078Z,23.40
2023-05-24T10:49:57.008Z,26.80
2023-05-24T10:52:37.707Z,27.20
2023-05-24T10:55:10.695Z,28.80
2023-05-24T10:57:43.005Z,29.80
2023-05-24T11:00:35.702Z,29.00
2023-05-24T11:05:58.408Z,26.10
2023-05-24T11:08:33.597Z,26.10
2023-05-24T11:13:51.240Z,24.50
2023-05-24T11:16:38.606Z,24.40
2023-05-24T11:21:50.993Z,24.00
2023-05-24T11:24:22.435Z,24.10
2023-05-24T11:26:54.219Z,23.70
2023-05-24T11:29:25.453Z,23.90
2023-05-24T11:31:57.904Z,23.20
2023-05-24T11:37:01.010Z,23.30
2023-05-24T11:39:34.875Z,23.30
2023-05-24T11:42:08.332Z,24.00
2023-05-24T11:44:40.948Z,23.80
2023-05-24T11:47:12.224Z,22.60
2023-05-24T11:49:42.423Z,22.50
2023-05-24T11:52:15.134Z,22.80
2023-05-24T11:54:45.308Z,23.10
2023-05-24T11:57:15.800Z,22.00
2023-05-24T11:59:45.731Z,22.80
2023-05-24T12:02:15.973Z,23.60
2023-05-24T12:07:21.316Z,22.80
2023-05-24T12:09:51.544Z,22.60
2023-05-24T12:12:30.882Z,22.80
2023-05-24T12:15:12.855Z,22.70
2023-05-24T12:17:43.365Z,22.60
2023-05-24T12:20:14.735Z,22.30
2023-05-24T12:22:55.062Z,21.90
2023-05-24T12:25:27.436Z,22.60
2023-05-24T12:27:58.903Z,22.90
2023-05-24T12:30:30.545Z,22.80
2023-05-24T12:33:01.205Z,22.60
2023-05-24T12:38:04.967Z,21.80
2023-05-24T12:40:36.768Z,21.70
2023-05-24T12:43:08.028Z,22.40
2023-05-24T12:45:38.263Z,21.60
2023-05-24T12:50:39.181Z,21.70
2023-05-24T12:53:11.950Z,21.60
2023-05-24T12:55:43.645Z,22.30
2023-05-24T13:08:24.473Z,21.30
2023-05-24T13:10:54.683Z,21.00
2023-05-24T13:13:24.869Z,21.30
2023-05-24T13:15:55.650Z,21.40
2023-05-24T13:20:57.923Z,21.00
2023-05-24T13:23:31.023Z,21.40
2023-05-24T13:26:01.936Z,22.00
2023-05-24T13:28:33.730Z,21.70
2023-05-24T13:31:04.154Z,21.50
2023-05-24T13:36:04.866Z,21.40
2023-05-24T13:38:38.572Z,21.70
2023-05-24T13:43:39.288Z,21.90
2023-05-24T13:46:10.357Z,20.90
2023-05-24T13:48:42.561Z,21.90
2023-05-24T13:51:12.856Z,21.60
2023-05-24T13:53:46.577Z,20.50
2023-05-24T13:56:17.244Z,21.80
2023-05-24T14:01:17.793Z,21.50
2023-05-24T14:03:48.005Z,22.60
2023-05-24T14:06:18.418Z,21.70
2023-05-24T14:08:51.374Z,22.80
2023-05-24T14:11:22.606Z,20.60
2023-05-24T14:16:27.914Z,20.70
2023-05-24T14:21:28.832Z,21.50
2023-05-24T14:24:01.703Z,23.00
2023-05-24T14:26:32.525Z,21.30
2023-05-24T14:29:02.676Z,21.10
2023-05-24T14:34:04.794Z,20.90
2023-05-24T14:36:35.106Z,20.30
2023-05-24T14:39:08.590Z,20.80
2023-05-24T14:41:38.885Z,20.20
2023-05-24T14:44:09.024Z,20.90
2023-05-24T14:46:39.317Z,20.80
2023-05-24T14:49:09.551Z,20.90
2023-05-24T14:54:14.498Z,21.10
2023-05-24T14:56:44.703Z,21.10
2023-05-24T14:59:14.938Z,21.30
2023-05-24T15:01:47.913Z,21.20
2023-05-24T15:04:18.093Z,21.00
2023-05-24T15:06:48.411Z,21.00
2023-05-24T15:09:21.487Z,21.00
2023-05-24T15:11:51.735Z,21.00
2023-05-24T15:14:22.100Z,21.10
2023-05-24T15:16:52.422Z,22.00
2023-05-24T15:19:22.795Z,20.90
2023-05-24T15:21:53.034Z,20.80
2023-05-24T15:24:25.814Z,20.70
2023-05-24T15:26:56.257Z,20.90
2023-05-24T15:29:26.451Z,20.50
2023-05-24T15:31:58.854Z,19.00
2023-05-24T15:34:29.006Z,20.20
2023-05-24T15:36:59.392Z,20.80
2023-05-24T15:39:32.208Z,20.40
2023-05-24T15:44:32.763Z,20.00
2023-05-24T15:49:34.320Z,20.70
2023-05-24T15:54:38.421Z,20.70
2023-05-24T15:57:09.193Z,19.40
2023-05-24T16:04:40.472Z,19.80
2023-05-24T16:07:10.705Z,17.00
2023-05-24T16:09:43.477Z,20.50
2023-05-24T16:12:13.685Z,19.40
2023-05-24T16:14:43.850Z,20.30
2023-05-24T16:19:46.584Z,19.80
2023-05-24T16:22:16.985Z,19.90
2023-05-24T16:24:49.751Z,20.80
2023-05-24T16:27:19.984Z,19.80
2023-05-24T16:40:00.216Z,19.50
2023-05-24T16:42:30.419Z,19.00
2023-05-24T16:45:00.821Z,20.00
2023-05-24T16:55:08.140Z,19.30
2023-05-24T16:57:38.752Z,19.90
2023-05-24T17:00:10.107Z,19.40
2023-05-24T17:02:40.375Z,19.40
2023-05-24T17:05:11.464Z,20.60
2023-05-24T17:07:43.035Z,18.90
2023-05-24T17:10:15.819Z,19.00
2023-05-24T17:12:47.678Z,18.50
2023-05-24T17:22:49.732Z,20.20
2023-05-24T17:25:22.720Z,19.80
2023-05-24T17:27:52.869Z,18.60
2023-05-24T17:30:23.154Z,20.10
2023-05-24T17:32:53.764Z,19.50
2023-05-24T17:35:23.929Z,18.60
2023-05-24T17:37:54.162Z,18.50
2023-05-24T17:40:27.004Z,18.60
2023-05-24T17:47:58.912Z,18.50
2023-05-24T17:53:00.197Z,19.40
2023-05-24T17:55:33.062Z,18.50
2023-05-24T17:58:04.177Z,16.70
2023-05-24T18:00:34.469Z,17.80
2023-05-24T18:03:04.815Z,19.30
2023-05-24T18:10:38.779Z,19.40
2023-05-24T18:13:11.351Z,18.40
2023-05-24T18:18:12.437Z,18.50
2023-05-24T18:20:42.830Z,18.90
2023-05-24T18:23:13.156Z,18.00
2023-05-24T18:25:46.608Z,18.00
2023-05-24T18:30:47.278Z,17.30
2023-05-24T18:33:17.668Z,18.60
2023-05-24T18:40:51.600Z,18.60
2023-05-24T18:45:52.278Z,16.70
2023-05-24T18:50:52.809Z,15.80
2023-05-24T18:53:22.997Z,17.10
2023-05-24T18:55:55.757Z,17.30
2023-05-24T18:58:25.991Z,16.00
2023-05-24T19:00:56.348Z,15.80
2023-05-24T19:03:27.300Z,17.90
2023-05-24T19:05:57.505Z,16.80
2023-05-24T19:08:27.814Z,16.80
2023-05-24T19:11:00.621Z,17.00
2023-05-24T19:13:30.855Z,14.70
2023-05-24T19:16:03.287Z,18.30
2023-05-24T19:18:33.560Z,15.60
2023-05-24T19:21:03.816Z,16.90
2023-05-24T19:26:06.991Z,15.00
2023-05-24T19:33:59.204Z,16.70
2023-05-24T19:36:31.525Z,16.20
2023-05-24T19:39:01.981Z,16.50
2023-05-24T19:44:05.298Z,16.60
2023-05-24T19:46:35.564Z,16.30
2023-05-24T19:51:37.690Z,16.50
2023-05-24T19:56:42.422Z,16.20
2023-05-24T19:59:12.699Z,16.10
2023-05-24T20:04:14.274Z,15.90
2023-05-24T20:09:18.963Z,16.90
